Time,TemperatureF,DewpointF,PressureIn,WindDirection,WindDirectionDegrees,WindSpeedMPH,WindSpeedGustMPH,Humidity,HourlyPrecipIn,Conditions,Clouds,dailyrainin,SoftwareType,DateUTC
2013-06-03 00:04:00,44.0,40.7,29.98,NW,324,0.0,0.0,88,0.00,,,0.00,Wunderground v.1.15,2013-06-03 05:04:00,
2013-06-03 00:09:00,44.0,40.7,29.98,NW,323,0.0,0.0,88,0.00,,,0.00,Wunderground v.1.15,2013-06-03 05:09:00,
2013-06-03 00:15:00,43.9,40.6,29.98,NW,324,0.0,0.0,88,0.00,,,0.00,Wunderground v.1.15,2013-06-03 05:15:00,
2013-06-03 00:20:00,42.9,39.3,29.98,NW,324,0.0,0.0,87,0.00,,,0.00,Wunderground v.1.15,2013-06-03 05:20:00,
2013-06-03 00:26:00,42.4,39.1,29.98,NW,324,0.0,0.0,88,0.00,,,0.00,Wunderground v.1.15,2013-06-03 05:26:00,
2013-06-03 00:31:00,42.6,39.3,29.98,NW,324,0.0,0.0,88,0.00,,,0.00,Wunderground v.1.15,2013-06-03 05:31:00,
2013-06-03 00:36:00,43.3,40.3,29.98,NW,324,0.0,1.0,89,0.00,,,0.00,Wunderground v.1.15,2013-06-03 05:36:00,
2013-06-03 00:41:00,44.0,41.0,29.98,NW,323,0.0,0.0,89,0.00,,,0.00,Wunderground v.1.15,2013-06-03 05:41:00,
2013-06-03 00:46:00,44.4,41.4,29.98,NW,324,0.0,0.0,89,0.00,,,0.00,Wunderground v.1.15,2013-06-03 05:46:00,
2013-06-03 00:51:00,44.7,41.7,29.98,NW,323,0.0,0.0,89,0.00,,,0.00,Wunderground v.1.15,2013-06-03 05:51:00,
2013-06-03 00:57:00,44.8,41.5,29.98,NW,323,0.0,0.0,88,0.00,,,0.00,Wunderground v.1.15,2013-06-03 05:57:00,
2013-06-03 01:02:00,44.5,41.2,29.98,NW,324,0.0,0.0,88,0.00,,,0.00,Wunderground v.1.15,2013-06-03 06:02:00,
2013-06-03 01:07:00,44.0,40.4,29.98,NW,323,0.0,0.0,87,0.00,,,0.00,Wunderground v.1.15,2013-06-03 06:07:00,
2013-06-03 01:12:00,43.6,40.0,29.98,NW,324,0.0,0.0,87,0.00,,,0.00,Wunderground v.1.15,2013-06-03 06:12:00,
2013-06-03 01:17:00,43.2,39.6,29.98,NW,323,0.0,0.0,87,0.00,,,0.00,Wunderground v.1.15,2013-06-03 06:17:00,
2013-06-03 01:23:00,42.6,39.0,29.98,NW,324,0.0,0.0,87,0.00,,,0.00,Wunderground v.1.15,2013-06-03 06:23:00,
2013-06-03 01:28:00,42.1,38.5,29.98,NW,324,0.0,0.0,87,0.00,,,0.00,Wunderground v.1.15,2013-06-03 06:28:00,
2013-06-03 01:34:00,42.2,38.9,29.98,NW,323,0.0,0.0,88,0.00,,,0.00,Wunderground v.1.15,2013-06-03 06:34:00,
2013-06-03 01:39:00,42.2,38.9,29.97,NW,324,0.0,0.0,88,0.00,,,0.00,Wunderground v.1.15,2013-06-03 06:39:00,
2013-06-03 01:44:00,42.2,38.9,29.97,NW,323,0.0,0.0,88,0.00,,,0.00,Wunderground v.1.15,2013-06-03 06:44:00,
2013-06-03 01:49:00,42.2,38.9,29.97,NW,324,0.0,0.0,88,0.00,,,0.00,Wunderground v.1.15,2013-06-03 06:49:00,
2013-06-03 01:55:00,42.2,39.2,29.97,NW,324,0.0,0.0,89,0.00,,,0.00,Wunderground v.1.15,2013-06-03 06:55:00,
2013-06-03 02:00:00,42.6,39.6,29.97,NW,324,0.0,0.0,89,0.00,,,0.00,Wunderground v.1.15,2013-06-03 07:00:00,
2013-06-03 02:06:00,42.5,39.5,29.97,NW,323,0.0,0.0,89,0.00,,,0.00,Wunderground v.1.15,2013-06-03 07:06:00,
2013-06-03 02:11:00,42.1,39.1,29.97,NW,323,0.0,0.0,89,0.00,,,0.00,Wunderground v.1.15,2013-06-03 07:11:00,
2013-06-03 02:16:00,41.5,38.5,29.97,NW,323,0.0,0.0,89,0.00,,,0.00,Wunderground v.1.15,2013-06-03 07:16:00,
2013-06-03 02:21:00,41.3,38.3,29.97,NW,324,0.0,0.0,89,0.00,,,0.00,Wunderground v.1.15,2013-06-03 07:21:00,
2013-06-03 02:26:00,41.4,38.7,29.97,NW,324,0.0,0.0,90,0.00,,,0.00,Wunderground v.1.15,2013-06-03 07:26:00,
2013-06-03 02:31:00,41.4,38.7,29.97,NW,324,0.0,0.0,90,0.00,,,0.00,Wunderground v.1.15,2013-06-03 07:31:00,
2013-06-03 02:37:00,41.4,38.7,29.97,NW,323,0.0,0.0,90,0.00,,,0.00,Wunderground v.1.15,2013-06-03 07:37:00,
2013-06-03 02:42:00,41.1,38.4,29.97,NW,323,0.0,0.0,90,0.00,,,0.00,Wunderground v.1.15,2013-06-03 07:42:00,
2013-06-03 02:47:00,40.3,37.3,29.97,NW,324,0.0,0.0,89,0.00,,,0.00,Wunderground v.1.15,2013-06-03 07:47:00,
2013-06-03 02:52:00,39.9,37.2,29.97,NW,324,0.0,0.0,90,0.00,,,0.00,Wunderground v.1.15,2013-06-03 07:52:00,
2013-06-03 02:57:00,39.8,37.1,29.97,NW,324,0.0,0.0,90,0.00,,,0.00,Wunderground v.1.15,2013-06-03 07:57:00,
2013-06-03 03:03:00,40.1,37.4,29.97,NW,324,0.0,0.0,90,0.00,,,0.00,Wunderground v.1.15,2013-06-03 08:03:00,
2013-06-03 03:08:00,40.2,37.5,29.97,NW,324,0.0,0.0,90,0.00,,,0.00,Wunderground v.1.15,2013-06-03 08:08:00,
2013-06-03 03:13:00,40.5,37.8,29.96,NW,325,0.0,0.0,90,0.00,,,0.00,Wunderground v.1.15,2013-06-03 08:13:00,
2013-06-03 03:18:00,40.7,38.3,29.96,NW,324,0.0,0.0,91,0.00,,,0.00,Wunderground v.1.15,2013-06-03 08:18:00,
2013-06-03 03:23:00,41.0,38.6,29.97,NW,323,0.0,0.0,91,0.00,,,0.00,Wunderground v.1.15,2013-06-03 08:23:00,
2013-06-03 03:28:00,41.2,38.8,29.96,NW,323,0.0,0.0,91,0.00,,,0.00,Wunderground v.1.15,2013-06-03 08:28:00,
2013-06-03 03:33:00,41.1,38.7,29.96,NW,324,0.0,0.0,91,0.00,,,0.00,Wunderground v.1.15,2013-06-03 08:33:00,
2013-06-03 03:38:00,40.7,38.3,29.97,NW,323,0.0,0.0,91,0.00,,,0.00,Wunderground v.1.15,2013-06-03 08:38:00,
2013-06-03 03:43:00,40.2,37.5,29.97,NW,323,0.0,0.0,90,0.00,,,0.00,Wunderground v.1.15,2013-06-03 08:43:00,
2013-06-03 03:48:00,39.9,37.2,29.96,NW,324,0.0,0.0,90,0.00,,,0.00,Wunderground v.1.15,2013-06-03 08:48:00,
2013-06-03 03:53:00,40.0,37.6,29.96,NW,323,0.0,0.0,91,0.00,,,0.00,Wunderground v.1.15,2013-06-03 08:53:00,
2013-06-03 03:58:00,40.2,37.8,29.96,NW,323,0.0,0.0,91,0.00,,,0.00,Wunderground v.1.15,2013-06-03 08:58:00,
2013-06-03 04:03:00,40.1,37.7,29.97,NW,324,0.0,0.0,91,0.00,,,0.00,Wunderground v.1.15,2013-06-03 09:03:00,
2013-06-03 04:08:00,40.2,37.8,29.97,NW,324,0.0,0.0,91,0.00,,,0.00,Wunderground v.1.15,2013-06-03 09:08:00,
2013-06-03 04:13:00,40.0,37.6,29.96,NW,323,0.0,0.0,91,0.00,,,0.00,Wunderground v.1.15,2013-06-03 09:13:00,
2013-06-03 04:18:00,40.0,37.6,29.96,NW,323,0.0,0.0,91,0.00,,,0.00,Wunderground v.1.15,2013-06-03 09:18:00,
2013-06-03 04:23:00,40.0,37.6,29.96,NW,324,0.0,0.0,91,0.00,,,0.00,Wunderground v.1.15,2013-06-03 09:23:00,
2013-06-03 04:28:00,40.0,37.6,29.97,NW,324,0.0,0.0,91,0.00,,,0.00,Wunderground v.1.15,2013-06-03 09:28:00,
2013-06-03 04:33:00,39.8,37.4,29.97,NW,323,0.0,0.0,91,0.00,,,0.00,Wunderground v.1.15,2013-06-03 09:33:00,
2013-06-03 04:38:00,39.6,37.2,29.97,NW,324,0.0,0.0,91,0.00,,,0.00,Wunderground v.1.15,2013-06-03 09:38:00,
2013-06-03 04:43:00,39.4,37.0,29.97,NW,323,0.0,0.0,91,0.00,,,0.00,Wunderground v.1.15,2013-06-03 09:43:00,
2013-06-03 04:48:00,39.3,36.9,29.97,NW,323,0.0,0.0,91,0.00,,,0.00,Wunderground v.1.15,2013-06-03 09:48:00,
2013-06-03 04:53:00,39.6,37.2,29.97,NW,324,0.0,0.0,91,0.00,,,0.00,Wunderground v.1.15,2013-06-03 09:53:00,
2013-06-03 04:58:00,39.8,37.4,29.97,NW,324,0.0,0.0,91,0.00,,,0.00,Wunderground v.1.15,2013-06-03 09:58:00,
2013-06-03 05:03:00,39.7,37.3,29.97,NW,324,0.0,0.0,91,0.00,,,0.00,Wunderground v.1.15,2013-06-03 10:03:00,
2013-06-03 05:08:00,39.5,37.1,29.97,NW,324,0.0,0.0,91,0.00,,,0.00,Wunderground v.1.15,2013-06-03 10:08:00,
2013-06-03 05:13:00,39.5,37.1,29.97,NW,324,0.0,0.0,91,0.00,,,0.00,Wunderground v.1.15,2013-06-03 10:13:00,
2013-06-03 05:18:00,39.6,37.2,29.97,NW,324,0.0,0.0,91,0.00,,,0.00,Wunderground v.1.15,2013-06-03 10:18:00,
2013-06-03 05:23:00,39.7,37.3,29.98,NW,323,0.0,0.0,91,0.00,,,0.00,Wunderground v.1.15,2013-06-03 10:23:00,
2013-06-03 05:28:00,39.9,37.5,29.98,NW,324,0.0,0.0,91,0.00,,,0.00,Wunderground v.1.15,2013-06-03 10:28:00,
2013-06-03 05:34:00,40.2,37.8,29.98,NW,324,0.0,0.0,91,0.00,,,0.00,Wunderground v.1.15,2013-06-03 10:34:00,
2013-06-03 05:39:00,39.9,37.5,29.98,NW,324,0.0,0.0,91,0.00,,,0.00,Wunderground v.1.15,2013-06-03 10:39:00,
2013-06-03 05:44:00,40.9,38.5,29.98,NW,323,0.0,0.0,91,0.00,,,0.00,Wunderground v.1.15,2013-06-03 10:44:00,
2013-06-03 05:49:00,41.6,39.2,29.98,NW,324,0.0,2.0,91,0.00,,,0.00,Wunderground v.1.15,2013-06-03 10:49:00,
2013-06-03 05:54:00,42.7,40.5,29.98,NW,323,0.0,0.0,92,0.00,,,0.00,Wunderground v.1.15,2013-06-03 10:54:00,
2013-06-03 05:59:00,42.8,40.4,29.99,NW,324,0.0,0.0,91,0.00,,,0.00,Wunderground v.1.15,2013-06-03 10:59:00,
2013-06-03 06:04:00,43.3,41.1,29.99,NW,324,0.0,0.0,92,0.00,,,0.00,Wunderground v.1.15,2013-06-03 11:04:00,
2013-06-03 06:09:00,43.7,41.5,29.98,NW,323,0.0,1.0,92,0.00,,,0.00,Wunderground v.1.15,2013-06-03 11:09:00,
2013-06-03 06:14:00,44.5,42.3,29.99,NW,323,0.0,2.0,92,0.00,,,0.00,Wunderground v.1.15,2013-06-03 11:14:00,
2013-06-03 06:19:00,45.1,42.6,29.99,NW,324,0.0,3.0,91,0.00,,,0.00,Wunderground v.1.15,2013-06-03 11:19:00,
2013-06-03 06:24:00,45.6,43.1,29.99,NW,324,0.0,0.0,91,0.00,,,0.00,Wunderground v.1.15,2013-06-03 11:24:00,
2013-06-03 06:29:00,46.1,43.6,29.99,NW,323,0.0,0.0,91,0.00,,,0.00,Wunderground v.1.15,2013-06-03 11:29:00,
2013-06-03 06:34:00,46.7,44.2,29.99,NW,323,0.0,0.0,91,0.00,,,0.00,Wunderground v.1.15,2013-06-03 11:34:00,
2013-06-03 06:39:00,47.1,44.6,29.99,NW,324,0.0,0.0,91,0.00,,,0.00,Wunderground v.1.15,2013-06-03 11:39:00,
2013-06-03 06:44:00,47.6,44.8,29.99,NW,324,0.0,0.0,90,0.00,,,0.00,Wunderground v.1.15,2013-06-03 11:44:00,
2013-06-03 06:49:00,48.2,45.4,29.99,NW,324,0.0,0.0,90,0.00,,,0.00,Wunderground v.1.15,2013-06-03 11:49:00,
2013-06-03 06:54:00,48.7,45.6,29.99,NW,323,0.0,0.0,89,0.00,,,0.00,Wunderground v.1.15,2013-06-03 11:54:00,
2013-06-03 06:59:00,49.4,46.3,29.99,NW,324,2.0,4.0,89,0.00,,,0.00,Wunderground v.1.15,2013-06-03 11:59:00,
2013-06-03 07:04:00,50.5,46.8,30.00,NW,323,1.0,3.0,87,0.00,,,0.00,Wunderground v.1.15,2013-06-03 12:04:00,
2013-06-03 07:09:00,51.3,46.9,30.00,NW,324,3.0,6.0,85,0.00,,,0.00,Wunderground v.1.15,2013-06-03 12:09:00,
2013-06-03 07:14:00,52.1,47.1,30.00,NW,324,4.0,5.0,83,0.00,,,0.00,Wunderground v.1.15,2013-06-03 12:14:00,
2013-06-03 07:19:00,52.7,47.0,30.00,NW,323,4.0,5.0,81,0.00,,,0.00,Wunderground v.1.15,2013-06-03 12:19:00,
2013-06-03 07:24:00,53.2,46.9,30.00,NW,324,3.0,6.0,79,0.00,,,0.00,Wunderground v.1.15,2013-06-03 12:24:00,
2013-06-03 07:29:00,53.7,46.7,30.00,NW,323,4.0,4.0,77,0.00,,,0.00,Wunderground v.1.15,2013-06-03 12:29:00,
2013-06-03 07:35:00,54.2,46.4,30.00,NW,323,5.0,7.0,75,0.00,,,0.00,Wunderground v.1.15,2013-06-03 12:35:00,
2013-06-03 07:40:00,54.5,47.1,30.00,NW,323,7.0,7.0,76,0.00,,,0.00,Wunderground v.1.15,2013-06-03 12:40:00,
2013-06-03 07:46:00,54.9,46.4,29.99,WNW,300,6.0,9.0,73,0.00,,,0.00,Wunderground v.1.15,2013-06-03 12:46:00,
2013-06-03 07:51:00,55.1,45.9,29.99,WSW,250,6.0,11.0,71,0.00,,,0.00,Wunderground v.1.15,2013-06-03 12:51:00,
2013-06-03 07:56:00,55.2,46.7,29.99,WSW,248,7.0,11.0,73,0.00,,,0.00,Wunderground v.1.15,2013-06-03 12:56:00,
2013-06-03 08:01:00,55.3,46.8,29.99,WSW,245,5.0,8.0,73,0.00,,,0.00,Wunderground v.1.15,2013-06-03 13:01:00,
2013-06-03 08:06:00,55.3,46.1,29.99,SW,222,4.0,11.0,71,0.00,,,0.00,Wunderground v.1.15,2013-06-03 13:06:00,
2013-06-03 08:12:00,55.7,46.8,29.99,SW,221,7.0,10.0,72,0.00,,,0.00,Wunderground v.1.15,2013-06-03 13:12:00,
2013-06-03 08:17:00,56.2,46.9,29.99,SW,221,6.0,10.0,71,0.00,,,0.00,Wunderground v.1.15,2013-06-03 13:17:00,
2013-06-03 08:22:00,56.4,47.1,29.99,SW,215,8.0,10.0,71,0.00,,,0.00,Wunderground v.1.15,2013-06-03 13:22:00,
2013-06-03 08:27:00,56.4,46.4,29.99,SSW,208,9.0,13.0,69,0.00,,,0.00,Wunderground v.1.15,2013-06-03 13:27:00,
2013-06-03 08:32:00,56.8,47.1,29.99,SSW,207,6.0,8.0,70,0.00,,,0.00,Wunderground v.1.15,2013-06-03 13:32:00,
2013-06-03 08:37:00,57.2,46.7,29.99,SSW,206,9.0,10.0,68,0.00,,,0.00,Wunderground v.1.15,2013-06-03 13:37:00,
2013-06-03 08:42:00,57.7,47.2,29.99,SSW,206,7.0,11.0,68,0.00,,,0.00,Wunderground v.1.15,2013-06-03 13:42:00,
2013-06-03 08:47:00,58.3,48.2,29.98,SSW,206,7.0,12.0,69,0.00,,,0.00,Wunderground v.1.15,2013-06-03 13:47:00,
2013-06-03 08:52:00,58.4,47.9,29.98,SSW,205,6.0,11.0,68,0.00,,,0.00,Wunderground v.1.15,2013-06-03 13:52:00,
2013-06-03 08:57:00,58.8,47.9,29.98,SSW,205,6.0,12.0,67,0.00,,,0.00,Wunderground v.1.15,2013-06-03 13:57:00,
2013-06-03 09:02:00,59.0,48.4,29.98,SSW,205,7.0,8.0,68,0.00,,,0.00,Wunderground v.1.15,2013-06-03 14:02:00,
2013-06-03 09:07:00,59.0,47.7,29.98,SSW,205,8.0,10.0,66,0.00,,,0.00,Wunderground v.1.15,2013-06-03 14:07:00,
2013-06-03 09:12:00,59.1,47.3,29.98,SSW,202,5.0,10.0,65,0.00,,,0.00,Wunderground v.1.15,2013-06-03 14:12:00,
2013-06-03 09:17:00,59.5,47.7,29.97,SSW,200,6.0,13.0,65,0.00,,,0.00,Wunderground v.1.15,2013-06-03 14:17:00,
2013-06-03 09:22:00,60.1,47.9,29.97,SSW,198,4.0,11.0,64,0.00,,,0.00,Wunderground v.1.15,2013-06-03 14:22:00,
2013-06-03 09:27:00,60.5,47.8,29.97,SSW,197,7.0,11.0,63,0.00,,,0.00,Wunderground v.1.15,2013-06-03 14:27:00,
2013-06-03 09:32:00,60.7,48.0,29.96,SSW,196,7.0,9.0,63,0.00,,,0.00,Wunderground v.1.15,2013-06-03 14:32:00,
2013-06-03 09:37:00,60.8,47.7,29.97,SSW,196,7.0,12.0,62,0.00,,,0.00,Wunderground v.1.15,2013-06-03 14:37:00,
2013-06-03 09:42:00,61.1,48.4,29.97,SSW,197,6.0,9.0,63,0.00,,,0.00,Wunderground v.1.15,2013-06-03 14:42:00,
2013-06-03 09:47:00,61.6,47.6,29.97,SSW,196,7.0,10.0,60,0.00,,,0.00,Wunderground v.1.15,2013-06-03 14:47:00,
2013-06-03 09:52:00,61.6,47.6,29.97,SSW,196,9.0,9.0,60,0.00,,,0.00,Wunderground v.1.15,2013-06-03 14:52:00,
2013-06-03 09:57:00,62.1,47.6,29.97,SSW,194,7.0,11.0,59,0.00,,,0.00,Wunderground v.1.15,2013-06-03 14:57:00,
2013-06-03 10:02:00,61.9,47.4,29.97,SSW,194,7.0,8.0,59,0.00,,,0.00,Wunderground v.1.15,2013-06-03 15:02:00,
2013-06-03 10:07:00,62.3,47.3,29.98,SSW,194,5.0,8.0,58,0.00,,,0.00,Wunderground v.1.15,2013-06-03 15:07:00,
2013-06-03 10:12:00,62.7,48.2,29.97,SSW,194,7.0,9.0,59,0.00,,,0.00,Wunderground v.1.15,2013-06-03 15:12:00,
2013-06-03 10:17:00,62.9,47.0,29.98,SSW,194,5.0,14.0,56,0.00,,,0.00,Wunderground v.1.15,2013-06-03 15:17:00,
2013-06-03 10:22:00,62.9,46.5,29.98,South,186,4.0,11.0,55,0.00,,,0.00,Wunderground v.1.15,2013-06-03 15:22:00,
2013-06-03 10:27:00,63.4,46.9,29.98,South,186,8.0,11.0,55,0.00,,,0.00,Wunderground v.1.15,2013-06-03 15:27:00,
2013-06-03 10:32:00,63.5,47.0,29.98,South,186,3.0,10.0,55,0.00,,,0.00,Wunderground v.1.15,2013-06-03 15:32:00,
2013-06-03 10:37:00,63.4,46.9,29.98,South,186,9.0,11.0,55,0.00,,,0.00,Wunderground v.1.15,2013-06-03 15:37:00,
2013-06-03 10:42:00,63.3,45.9,29.98,South,185,2.0,11.0,53,0.00,,,0.00,Wunderground v.1.15,2013-06-03 15:42:00,
2013-06-03 10:47:00,64.0,46.5,29.98,South,185,13.0,13.0,53,0.00,,,0.00,Wunderground v.1.15,2013-06-03 15:47:00,
2013-06-03 10:53:00,63.6,47.1,29.98,South,185,5.0,7.0,55,0.00,,,0.00,Wunderground v.1.15,2013-06-03 15:53:00,
2013-06-03 10:58:00,63.7,45.2,29.97,South,183,5.0,11.0,51,0.00,,,0.00,Wunderground v.1.15,2013-06-03 15:58:00,
2013-06-03 11:03:00,63.7,46.7,29.97,South,183,4.0,9.0,54,0.00,,,0.00,Wunderground v.1.15,2013-06-03 16:03:00,
2013-06-03 11:08:00,63.4,46.0,29.97,South,183,4.0,9.0,53,0.00,,,0.00,Wunderground v.1.15,2013-06-03 16:08:00,
2013-06-03 11:13:00,62.9,45.5,29.96,South,183,7.0,10.0,53,0.00,,,0.00,Wunderground v.1.15,2013-06-03 16:13:00,
2013-06-03 11:18:00,62.6,45.7,29.96,South,172,11.0,13.0,54,0.00,,,0.00,Wunderground v.1.15,2013-06-03 16:18:00,
2013-06-03 11:23:00,62.3,44.9,29.95,SSE,149,7.0,12.0,53,0.00,,,0.00,Wunderground v.1.15,2013-06-03 16:23:00,
2013-06-03 11:28:00,62.1,45.2,29.95,SSE,149,5.0,12.0,54,0.00,,,0.00,Wunderground v.1.15,2013-06-03 16:28:00,
2013-06-03 11:33:00,62.3,45.9,29.95,SE,136,6.0,11.0,55,0.00,,,0.00,Wunderground v.1.15,2013-06-03 16:33:00,
2013-06-03 11:38:00,62.5,46.6,29.96,SE,136,11.0,11.0,56,0.00,,,0.00,Wunderground v.1.15,2013-06-03 16:38:00,
2013-06-03 11:43:00,62.7,45.8,29.95,SE,136,6.0,10.0,54,0.00,,,0.00,Wunderground v.1.15,2013-06-03 16:43:00,
2013-06-03 11:48:00,62.9,46.0,29.95,SE,135,13.0,15.0,54,0.00,,,0.00,Wunderground v.1.15,2013-06-03 16:48:00,
2013-06-03 11:53:00,62.9,45.5,29.94,SE,134,9.0,12.0,53,0.00,,,0.00,Wunderground v.1.15,2013-06-03 16:53:00,
2013-06-03 11:58:00,62.9,46.5,29.94,SE,139,8.0,12.0,55,0.00,,,0.00,Wunderground v.1.15,2013-06-03 16:58:00,
2013-06-03 12:03:00,63.0,47.1,29.93,SE,138,15.0,16.0,56,0.00,,,0.00,Wunderground v.1.15,2013-06-03 17:03:00,
2013-06-03 12:08:00,62.8,46.4,29.93,SE,134,8.0,16.0,55,0.00,,,0.00,Wunderground v.1.15,2013-06-03 17:08:00,
2013-06-03 12:13:00,62.6,45.7,29.93,SE,142,10.0,16.0,54,0.00,,,0.00,Wunderground v.1.15,2013-06-03 17:13:00,
2013-06-03 12:18:00,62.8,45.4,29.92,ESE,123,15.0,16.0,53,0.00,,,0.00,Wunderground v.1.15,2013-06-03 17:18:00,
2013-06-03 12:23:00,63.1,46.7,29.92,SE,136,10.0,15.0,55,0.00,,,0.00,Wunderground v.1.15,2013-06-03 17:23:00,
2013-06-03 12:28:00,62.9,45.5,29.93,SE,145,10.0,19.0,53,0.00,,,0.00,Wunderground v.1.15,2013-06-03 17:28:00,
2013-06-03 12:33:00,62.9,46.0,29.93,SE,140,7.0,12.0,54,0.00,,,0.00,Wunderground v.1.15,2013-06-03 17:33:00,
2013-06-03 12:38:00,63.3,45.9,29.93,SE,138,6.0,14.0,53,0.00,,,0.00,Wunderground v.1.15,2013-06-03 17:38:00,
2013-06-03 12:43:00,64.0,46.0,29.93,ESE,121,10.0,16.0,52,0.00,,,0.00,Wunderground v.1.15,2013-06-03 17:43:00,
2013-06-03 12:48:00,64.6,46.1,29.92,SE,141,6.0,17.0,51,0.00,,,0.00,Wunderground v.1.15,2013-06-03 17:48:00,
2013-06-03 12:53:00,65.5,47.9,29.93,SE,138,14.0,16.0,53,0.00,,,0.00,Wunderground v.1.15,2013-06-03 17:53:00,
2013-06-03 12:58:00,65.3,46.2,29.93,SE,128,14.0,16.0,50,0.00,,,0.00,Wunderground v.1.15,2013-06-03 17:58:00,
2013-06-03 13:03:00,65.6,47.5,29.92,SE,130,14.0,19.0,52,0.00,,,0.00,Wunderground v.1.15,2013-06-03 18:03:00,
2013-06-03 13:08:00,65.2,47.1,29.92,SE,125,9.0,19.0,52,0.00,,,0.00,Wunderground v.1.15,2013-06-03 18:08:00,
2013-06-03 13:13:00,65.0,47.4,29.92,SSE,153,8.0,15.0,53,0.00,,,0.00,Wunderground v.1.15,2013-06-03 18:13:00,
2013-06-03 13:18:00,65.8,47.2,29.92,SE,140,9.0,16.0,51,0.00,,,0.00,Wunderground v.1.15,2013-06-03 18:18:00,
2013-06-03 13:23:00,66.5,48.3,29.92,ESE,123,12.0,17.0,52,0.00,,,0.00,Wunderground v.1.15,2013-06-03 18:23:00,
2013-06-03 13:28:00,66.9,48.2,29.92,ESE,120,11.0,17.0,51,0.00,,,0.00,Wunderground v.1.15,2013-06-03 18:28:00,
2013-06-03 13:33:00,66.6,47.9,29.92,SE,146,9.0,16.0,51,0.00,,,0.00,Wunderground v.1.15,2013-06-03 18:33:00,
2013-06-03 13:38:00,67.3,48.5,29.91,SE,136,19.0,19.0,51,0.00,,,0.00,Wunderground v.1.15,2013-06-03 18:38:00,
2013-06-03 13:43:00,67.6,47.2,29.91,ESE,109,14.0,16.0,48,0.00,,,0.00,Wunderground v.1.15,2013-06-03 18:43:00,
2013-06-03 13:48:00,67.9,47.5,29.91,SE,136,17.0,18.0,48,0.00,,,0.00,Wunderground v.1.15,2013-06-03 18:48:00,
2013-06-03 13:53:00,68.1,47.1,29.91,SE,145,8.0,16.0,47,0.00,,,0.00,Wunderground v.1.15,2013-06-03 18:53:00,
2013-06-03 13:58:00,67.9,46.9,29.90,SE,126,17.0,19.0,47,0.00,,,0.00,Wunderground v.1.15,2013-06-03 18:58:00,
2013-06-03 14:03:00,67.7,47.3,29.90,SSE,150,15.0,19.0,48,0.00,,,0.00,Wunderground v.1.15,2013-06-03 19:03:00,
2013-06-03 14:08:00,67.6,46.6,29.90,SE,130,12.0,19.0,47,0.00,,,0.00,Wunderground v.1.15,2013-06-03 19:08:00,
2013-06-03 14:13:00,68.1,48.8,29.90,SE,142,13.0,18.0,50,0.00,,,0.00,Wunderground v.1.15,2013-06-03 19:13:00,
2013-06-03 14:18:00,68.0,48.7,29.89,SE,132,13.0,18.0,50,0.00,,,0.00,Wunderground v.1.15,2013-06-03 19:18:00,
2013-06-03 14:23:00,68.8,49.9,29.89,SE,141,7.0,14.0,51,0.00,,,0.00,Wunderground v.1.15,2013-06-03 19:23:00,
2013-06-03 14:28:00,68.6,47.6,29.89,ESE,117,9.0,18.0,47,0.00,,,0.00,Wunderground v.1.15,2013-06-03 19:28:00,
2013-06-03 14:34:00,68.7,48.8,29.89,ESE,122,18.0,18.0,49,0.00,,,0.00,Wunderground v.1.15,2013-06-03 19:34:00,
2013-06-03 14:39:00,68.6,49.2,29.88,SE,143,13.0,18.0,50,0.00,,,0.00,Wunderground v.1.15,2013-06-03 19:39:00,
2013-06-03 14:44:00,69.0,48.5,29.88,SE,125,9.0,21.0,48,0.00,,,0.00,Wunderground v.1.15,2013-06-03 19:44:00,
2013-06-03 14:49:00,69.0,47.9,29.88,ESE,123,15.0,21.0,47,0.00,,,0.00,Wunderground v.1.15,2013-06-03 19:49:00,
2013-06-03 14:54:00,68.8,47.7,29.88,SE,125,7.0,16.0,47,0.00,,,0.00,Wunderground v.1.15,2013-06-03 19:54:00,
2013-06-03 14:59:00,69.2,48.7,29.88,SE,128,10.0,19.0,48,0.00,,,0.00,Wunderground v.1.15,2013-06-03 19:59:00,
2013-06-03 15:04:00,69.5,48.9,29.88,SE,128,12.0,17.0,48,0.00,,,0.00,Wunderground v.1.15,2013-06-03 20:04:00,
2013-06-03 15:09:00,69.4,48.3,29.87,SE,130,14.0,18.0,47,0.00,,,0.00,Wunderground v.1.15,2013-06-03 20:09:00,
2013-06-03 15:14:00,69.6,49.6,29.87,SSE,148,15.0,18.0,49,0.00,,,0.00,Wunderground v.1.15,2013-06-03 20:14:00,
2013-06-03 15:19:00,69.7,48.0,29.87,ESE,117,14.0,18.0,46,0.00,,,0.00,Wunderground v.1.15,2013-06-03 20:19:00,
2013-06-03 15:24:00,69.4,48.3,29.87,ESE,107,11.0,17.0,47,0.00,,,0.00,Wunderground v.1.15,2013-06-03 20:24:00,
2013-06-03 15:29:00,69.4,47.7,29.87,ESE,111,8.0,18.0,46,0.00,,,0.00,Wunderground v.1.15,2013-06-03 20:29:00,
2013-06-03 15:34:00,69.9,49.9,29.87,SE,125,11.0,19.0,49,0.00,,,0.00,Wunderground v.1.15,2013-06-03 20:34:00,
2013-06-03 15:39:00,70.0,50.0,29.87,ESE,119,13.0,19.0,49,0.00,,,0.00,Wunderground v.1.15,2013-06-03 20:39:00,
2013-06-03 15:44:00,69.9,48.2,29.87,SE,128,12.0,18.0,46,0.00,,,0.00,Wunderground v.1.15,2013-06-03 20:44:00,
2013-06-03 15:49:00,69.7,48.0,29.87,SE,138,13.0,18.0,46,0.00,,,0.00,Wunderground v.1.15,2013-06-03 20:49:00,
2013-06-03 15:54:00,69.8,48.7,29.87,SE,126,10.0,17.0,47,0.00,,,0.00,Wunderground v.1.15,2013-06-03 20:54:00,
2013-06-03 15:59:00,69.9,49.3,29.86,SE,145,9.0,17.0,48,0.00,,,0.00,Wunderground v.1.15,2013-06-03 20:59:00,
2013-06-03 16:04:00,69.9,48.7,29.86,SE,129,15.0,19.0,47,0.00,,,0.00,Wunderground v.1.15,2013-06-03 21:04:00,
2013-06-03 16:09:00,69.8,49.2,29.86,ESE,108,13.0,19.0,48,0.00,,,0.00,Wunderground v.1.15,2013-06-03 21:09:00,
2013-06-03 16:14:00,70.1,50.0,29.85,SE,137,13.0,22.0,49,0.00,,,0.00,Wunderground v.1.15,2013-06-03 21:14:00,
2013-06-03 16:19:00,69.9,49.9,29.85,SE,146,11.0,22.0,49,0.00,,,0.00,Wunderground v.1.15,2013-06-03 21:19:00,
2013-06-03 16:24:00,69.8,48.1,29.85,ESE,122,17.0,21.0,46,0.00,,,0.00,Wunderground v.1.15,2013-06-03 21:24:00,
2013-06-03 16:29:00,69.8,48.1,29.84,ESE,123,12.0,21.0,46,0.00,,,0.00,Wunderground v.1.15,2013-06-03 21:29:00,
2013-06-03 16:34:00,70.2,49.0,29.84,ESE,115,15.0,23.0,47,0.00,,,0.00,Wunderground v.1.15,2013-06-03 21:34:00,
2013-06-03 16:39:00,70.0,48.3,29.84,East,92,18.0,23.0,46,0.00,,,0.00,Wunderground v.1.15,2013-06-03 21:39:00,
2013-06-03 16:44:00,70.1,47.8,29.83,SE,128,20.0,20.0,45,0.00,,,0.00,Wunderground v.1.15,2013-06-03 21:44:00,
2013-06-03 16:49:00,69.8,47.5,29.83,SE,132,13.0,20.0,45,0.00,,,0.00,Wunderground v.1.15,2013-06-03 21:49:00,
2013-06-03 16:54:00,69.9,47.6,29.83,SE,132,14.0,21.0,45,0.00,,,0.00,Wunderground v.1.15,2013-06-03 21:54:00,
2013-06-03 16:59:00,70.2,49.0,29.83,SE,125,11.0,23.0,47,0.00,,,0.00,Wunderground v.1.15,2013-06-03 21:59:00,
2013-06-03 17:04:00,70.0,48.3,29.83,SE,129,14.0,24.0,46,0.00,,,0.00,Wunderground v.1.15,2013-06-03 22:04:00,
2013-06-03 17:09:00,70.0,47.7,29.82,ESE,119,17.0,24.0,45,0.00,,,0.00,Wunderground v.1.15,2013-06-03 22:09:00,
2013-06-03 17:14:00,70.0,47.7,29.82,SE,128,15.0,24.0,45,0.00,,,0.00,Wunderground v.1.15,2013-06-03 22:14:00,
2013-06-03 17:19:00,70.1,48.4,29.82,SE,138,21.0,24.0,46,0.00,,,0.00,Wunderground v.1.15,2013-06-03 22:19:00,
2013-06-03 17:24:00,70.1,48.4,29.82,SE,128,17.0,20.0,46,0.00,,,0.00,Wunderground v.1.15,2013-06-03 22:24:00,
2013-06-03 17:29:00,70.0,48.8,29.82,SE,134,16.0,25.0,47,0.00,,,0.00,Wunderground v.1.15,2013-06-03 22:29:00,
2013-06-03 17:34:00,69.9,48.2,29.82,SE,141,15.0,27.0,46,0.00,,,0.00,Wunderground v.1.15,2013-06-03 22:34:00,
2013-06-03 17:39:00,69.9,48.7,29.82,SE,138,11.0,27.0,47,0.00,,,0.00,Wunderground v.1.15,2013-06-03 22:39:00,
2013-06-03 17:44:00,70.0,48.8,29.82,ESE,123,13.0,24.0,47,0.00,,,0.00,Wunderground v.1.15,2013-06-03 22:44:00,
2013-06-03 17:50:00,69.9,49.3,29.82,South,175,16.0,16.0,48,0.00,,,0.00,Wunderground v.1.15,2013-06-03 22:50:00,
2013-06-03 17:56:00,70.1,49.5,29.82,SE,144,20.0,24.0,48,0.00,,,0.00,Wunderground v.1.15,2013-06-03 22:56:00,
2013-06-03 18:01:00,70.0,48.8,29.81,SE,135,15.0,20.0,47,0.00,,,0.00,Wunderground v.1.15,2013-06-03 23:01:00,
2013-06-03 18:06:00,69.8,49.2,29.82,SSE,148,12.0,21.0,48,0.00,,,0.00,Wunderground v.1.15,2013-06-03 23:06:00,
2013-06-03 18:11:00,69.7,48.6,29.81,ESE,123,17.0,22.0,47,0.00,,,0.00,Wunderground v.1.15,2013-06-03 23:11:00,
2013-06-03 18:16:00,69.4,48.3,29.81,SE,131,20.0,23.0,47,0.00,,,0.00,Wunderground v.1.15,2013-06-03 23:16:00,
2013-06-03 18:22:00,69.4,48.9,29.81,SE,133,10.0,27.0,48,0.00,,,0.00,Wunderground v.1.15,2013-06-03 23:22:00,
2013-06-03 18:27:00,69.3,49.3,29.81,SE,134,16.0,27.0,49,0.00,,,0.00,Wunderground v.1.15,2013-06-03 23:27:00,
2013-06-03 18:32:00,69.3,48.8,29.81,SE,132,15.0,24.0,48,0.00,,,0.00,Wunderground v.1.15,2013-06-03 23:32:00,
2013-06-03 18:37:00,69.0,49.0,29.81,ESE,122,18.0,24.0,49,0.00,,,0.00,Wunderground v.1.15,2013-06-03 23:37:00,
2013-06-03 18:42:00,69.0,48.5,29.81,SSE,155,14.0,24.0,48,0.00,,,0.00,Wunderground v.1.15,2013-06-03 23:42:00,
2013-06-03 18:47:00,69.1,49.1,29.81,SE,136,17.0,24.0,49,0.00,,,0.00,Wunderground v.1.15,2013-06-03 23:47:00,
2013-06-03 18:52:00,69.0,49.0,29.82,SSE,157,11.0,21.0,49,0.00,,,0.00,Wunderground v.1.15,2013-06-03 23:52:00,
2013-06-03 18:57:00,68.8,49.4,29.82,SSE,150,14.0,21.0,50,0.00,,,0.00,Wunderground v.1.15,2013-06-03 23:57:00,
2013-06-03 19:02:00,68.7,49.3,29.82,SE,133,15.0,17.0,50,0.00,,,0.00,Wunderground v.1.15,2013-06-04 00:02:00,
2013-06-03 19:07:00,68.6,48.7,29.82,SE,126,23.0,23.0,49,0.00,,,0.00,Wunderground v.1.15,2013-06-04 00:07:00,
2013-06-03 19:12:00,68.5,48.6,29.82,SSE,153,20.0,22.0,49,0.00,,,0.00,Wunderground v.1.15,2013-06-04 00:12:00,
2013-06-03 19:17:00,68.3,48.4,29.82,SE,132,13.0,24.0,49,0.00,,,0.00,Wunderground v.1.15,2013-06-04 00:17:00,
2013-06-03 19:22:00,68.2,48.3,29.82,SE,146,19.0,23.0,49,0.00,,,0.00,Wunderground v.1.15,2013-06-04 00:22:00,
2013-06-03 19:27:00,68.0,48.1,29.82,SSE,150,22.0,24.0,49,0.00,,,0.00,Wunderground v.1.15,2013-06-04 00:27:00,
2013-06-03 19:32:00,67.8,47.9,29.82,SSE,157,15.0,19.0,49,0.00,,,0.00,Wunderground v.1.15,2013-06-04 00:32:00,
2013-06-03 19:37:00,67.7,47.8,29.82,SE,146,14.0,24.0,49,0.00,,,0.00,Wunderground v.1.15,2013-06-04 00:37:00,
2013-06-03 19:42:00,67.5,47.7,29.83,SE,146,12.0,21.0,49,0.00,,,0.00,Wunderground v.1.15,2013-06-04 00:42:00,
2013-06-03 19:47:00,67.4,48.1,29.83,SSE,153,16.0,22.0,50,0.00,,,0.00,Wunderground v.1.15,2013-06-04 00:47:00,
2013-06-03 19:52:00,67.1,48.4,29.83,SE,140,12.0,16.0,51,0.00,,,0.00,Wunderground v.1.15,2013-06-04 00:52:00,
2013-06-03 19:57:00,66.9,47.6,29.84,SSE,147,6.0,21.0,50,0.00,,,0.00,Wunderground v.1.15,2013-06-04 00:57:00,
2013-06-03 20:02:00,66.7,47.5,29.84,SE,138,14.0,18.0,50,0.00,,,0.00,Wunderground v.1.15,2013-06-04 01:02:00,
2013-06-03 20:07:00,66.4,47.7,29.84,SE,136,9.0,18.0,51,0.00,,,0.00,Wunderground v.1.15,2013-06-04 01:07:00,
2013-06-03 20:12:00,66.2,47.5,29.85,SE,137,10.0,13.0,51,0.00,,,0.00,Wunderground v.1.15,2013-06-04 01:12:00,
2013-06-03 20:17:00,65.9,48.3,29.85,SE,140,9.0,13.0,53,0.00,,,0.00,Wunderground v.1.15,2013-06-04 01:17:00,
2013-06-03 20:22:00,66.0,48.4,29.85,SSE,152,10.0,13.0,53,0.00,,,0.00,Wunderground v.1.15,2013-06-04 01:22:00,
2013-06-03 20:27:00,66.0,48.4,29.85,SSE,165,6.0,14.0,53,0.00,,,0.00,Wunderground v.1.15,2013-06-04 01:27:00,
2013-06-03 20:32:00,65.9,48.3,29.85,SE,132,9.0,15.0,53,0.00,,,0.00,Wunderground v.1.15,2013-06-04 01:32:00,
2013-06-03 20:37:00,65.4,47.8,29.85,SE,134,8.0,15.0,53,0.00,,,0.00,Wunderground v.1.15,2013-06-04 01:37:00,
2013-06-03 20:42:00,65.4,47.3,29.85,SE,132,13.0,15.0,52,0.00,,,0.00,Wunderground v.1.15,2013-06-04 01:42:00,
2013-06-03 20:47:00,65.2,47.6,29.85,SE,138,8.0,15.0,53,0.00,,,0.00,Wunderground v.1.15,2013-06-04 01:47:00,
2013-06-03 20:52:00,64.9,47.9,29.85,SE,146,14.0,14.0,54,0.00,,,0.00,Wunderground v.1.15,2013-06-04 01:52:00,
2013-06-03 20:57:00,64.5,47.5,29.85,SE,139,7.0,14.0,54,0.00,,,0.00,Wunderground v.1.15,2013-06-04 01:57:00,
2013-06-03 21:02:00,64.4,47.4,29.85,ESE,121,8.0,18.0,54,0.00,,,0.00,Wunderground v.1.15,2013-06-04 02:02:00,
2013-06-03 21:07:00,64.3,47.3,29.85,SE,134,8.0,18.0,54,0.00,,,0.00,Wunderground v.1.15,2013-06-04 02:07:00,
2013-06-03 21:12:00,64.2,47.7,29.85,SE,133,7.0,11.0,55,0.00,,,0.00,Wunderground v.1.15,2013-06-04 02:12:00,
2013-06-03 21:17:00,64.2,47.7,29.85,ESE,123,10.0,13.0,55,0.00,,,0.00,Wunderground v.1.15,2013-06-04 02:17:00,
2013-06-03 21:22:00,64.3,48.3,29.85,SE,130,7.0,12.0,56,0.00,,,0.00,Wunderground v.1.15,2013-06-04 02:22:00,
2013-06-03 21:27:00,64.4,48.4,29.86,SE,142,12.0,15.0,56,0.00,,,0.00,Wunderground v.1.15,2013-06-04 02:27:00,
2013-06-03 21:32:00,64.3,48.3,29.86,SE,142,8.0,11.0,56,0.00,,,0.00,Wunderground v.1.15,2013-06-04 02:32:00,
2013-06-03 21:37:00,64.4,48.4,29.87,SE,132,15.0,15.0,56,0.00,,,0.00,Wunderground v.1.15,2013-06-04 02:37:00,
2013-06-03 21:43:00,64.4,48.4,29.87,SE,132,7.0,16.0,56,0.00,,,0.00,Wunderground v.1.15,2013-06-04 02:43:00,
2013-06-03 21:48:00,64.3,48.7,29.87,SE,129,9.0,16.0,57,0.00,,,0.00,Wunderground v.1.15,2013-06-04 02:48:00,
2013-06-03 21:53:00,64.1,48.5,29.87,SE,128,8.0,14.0,57,0.00,,,0.00,Wunderground v.1.15,2013-06-04 02:53:00,
2013-06-03 21:58:00,64.2,48.2,29.88,SE,130,10.0,14.0,56,0.00,,,0.00,Wunderground v.1.15,2013-06-04 02:58:00,
2013-06-03 22:03:00,64.2,48.2,29.88,SE,124,11.0,14.0,56,0.00,,,0.00,Wunderground v.1.15,2013-06-04 03:03:00,
2013-06-03 22:08:00,64.1,48.5,29.88,SE,141,5.0,14.0,57,0.00,,,0.00,Wunderground v.1.15,2013-06-04 03:08:00,
2013-06-03 22:13:00,64.1,48.5,29.89,SSE,147,8.0,14.0,57,0.00,,,0.00,Wunderground v.1.15,2013-06-04 03:13:00,
2013-06-03 22:18:00,64.0,48.5,29.90,SE,146,8.0,14.0,57,0.00,,,0.00,Wunderground v.1.15,2013-06-04 03:18:00,
2013-06-03 22:23:00,63.9,48.4,29.90,SE,142,5.0,10.0,57,0.00,,,0.00,Wunderground v.1.15,2013-06-04 03:23:00,
2013-06-03 22:28:00,63.8,48.3,29.90,SE,140,7.0,10.0,57,0.00,,,0.00,Wunderground v.1.15,2013-06-04 03:28:00,
2013-06-03 22:33:00,63.7,48.6,29.90,SE,144,5.0,7.0,58,0.00,,,0.00,Wunderground v.1.15,2013-06-04 03:33:00,
2013-06-03 22:38:00,63.5,48.5,29.90,SE,137,4.0,8.0,58,0.00,,,0.00,Wunderground v.1.15,2013-06-04 03:38:00,
2013-06-03 22:43:00,63.4,48.8,29.90,SE,136,3.0,7.0,59,0.00,,,0.00,Wunderground v.1.15,2013-06-04 03:43:00,
2013-06-03 22:48:00,63.3,48.3,29.89,SE,134,6.0,8.0,58,0.00,,,0.00,Wunderground v.1.15,2013-06-04 03:48:00,
2013-06-03 22:53:00,63.2,48.6,29.89,SE,128,6.0,10.0,59,0.00,,,0.00,Wunderground v.1.15,2013-06-04 03:53:00,
2013-06-03 22:58:00,63.1,48.5,29.88,ESE,123,9.0,14.0,59,0.00,,,0.00,Wunderground v.1.15,2013-06-04 03:58:00,
2013-06-03 23:01:00,63.0,48.4,29.88,ESE,123,8.0,11.0,59,0.00,,,0.00,Wunderground v.1.15,2013-06-04 04:01:00,
2013-06-03 23:03:00,63.0,48.4,29.89,SE,132,3.0,11.0,59,0.00,,,0.00,Wunderground v.1.15,2013-06-04 04:03:00,
2013-06-03 23:08:00,63.0,48.9,29.88,SE,139,8.0,11.0,60,0.00,,,0.00,Wunderground v.1.15,2013-06-04 04:08:00,
2013-06-03 23:13:00,62.9,48.8,29.87,SE,132,9.0,13.0,60,0.00,,,0.00,Wunderground v.1.15,2013-06-04 04:13:00,
2013-06-03 23:18:00,62.8,48.7,29.87,ESE,121,8.0,13.0,60,0.00,,,0.00,Wunderground v.1.15,2013-06-04 04:18:00,
2013-06-03 23:23:00,62.7,48.6,29.87,SE,132,8.0,13.0,60,0.00,,,0.00,Wunderground v.1.15,2013-06-04 04:23:00,
2013-06-03 23:28:00,62.9,48.8,29.87,ESE,120,9.0,14.0,60,0.00,,,0.00,Wunderground v.1.15,2013-06-04 04:28:00,
2013-06-03 23:33:00,62.6,48.5,29.87,ESE,123,9.0,16.0,60,0.00,,,0.00,Wunderground v.1.15,2013-06-04 04:33:00,
2013-06-03 23:38:00,62.7,48.6,29.87,SE,132,9.0,16.0,60,0.00,,,0.00,Wunderground v.1.15,2013-06-04 04:38:00,
2013-06-03 23:43:00,62.7,48.6,29.88,ESE,121,5.0,11.0,60,0.00,,,0.00,Wunderground v.1.15,2013-06-04 04:43:00,
2013-06-03 23:48:00,62.7,49.1,29.88,SE,133,9.0,14.0,61,0.00,,,0.00,Wunderground v.1.15,2013-06-04 04:48:00,
2013-06-03 23:53:00,62.7,48.6,29.88,SE,129,7.0,11.0,60,0.00,,,0.00,Wunderground v.1.15,2013-06-04 04:53:00,
2013-06-03 23:58:00,62.7,49.1,29.88,SE,132,4.0,11.0,61,0.00,,,0.00,Wunderground v.1.15,2013-06-04 04:58:00,